createdAt,value
2018-04-16T00:02:25.150Z,81.75
2018-04-16T00:04:56.621Z,75.43
2018-04-16T00:07:28.961Z,78.90
2018-04-16T00:10:01.095Z,81.32
2018-04-16T00:12:45.248Z,98.87
2018-04-16T00:15:17.130Z,85.05
2018-04-16T00:20:29.505Z,92.97
2018-04-16T00:23:03.001Z,89.68
2018-04-16T00:25:40.362Z,86.87
2018-04-16T00:28:11.461Z,95.35
2018-04-16T00:30:42.876Z,96.47
2018-04-16T00:35:23.682Z,93.70
2018-04-16T00:40:06.717Z,83.37
2018-04-16T00:44:59.419Z,96.65
2018-04-16T00:47:41.247Z,100.95
2018-04-16T00:52:19.269Z,99.13
2018-04-16T00:57:00.440Z,91.50
2018-04-16T01:02:01.377Z,98.85
2018-04-16T01:06:54.908Z,86.30
2018-04-16T01:09:37.908Z,106.85
2018-04-16T01:12:21.155Z,94.20
2018-04-16T01:18:11.149Z,95.22
2018-04-16T01:22:51.256Z,93.22
2018-04-16T01:27:32.700Z,92.68
2018-04-16T01:32:17.918Z,95.07
2018-04-16T01:36:58.333Z,91.93
2018-04-16T01:56:10.933Z,81.82
2018-04-16T02:23:42.121Z,100.95
2018-04-16T02:27:37.840Z,95.90
2018-04-16T02:37:28.048Z,114.70
2018-04-16T02:47:58.699Z,103.20
2018-04-16T02:58:09.869Z,84.10
2018-04-16T03:02:58.736Z,93.28
2018-04-16T03:15:22.356Z,91.37
2018-04-16T03:20:29.321Z,100.62
2018-04-16T03:23:42.687Z,88.25
2018-04-16T03:29:34.151Z,96.80
2018-04-16T03:37:33.218Z,90.72
2018-04-16T04:08:11.335Z,86.97
2018-04-16T04:31:52.553Z,92.18
2018-04-16T04:34:23.477Z,91.10
2018-04-16T04:36:54.717Z,95.45
2018-04-16T04:39:25.604Z,93.03
2018-04-16T04:41:56.811Z,86.82
2018-04-16T04:44:27.940Z,91.22
2018-04-16T04:46:58.845Z,90.32
2018-04-16T04:49:29.950Z,90.38
2018-04-16T04:52:06.184Z,88.62
2018-04-16T04:54:39.670Z,86.47
2018-04-16T04:57:15.757Z,90.80
2018-04-16T04:59:46.737Z,91.18
2018-04-16T05:02:17.644Z,91.85
2018-04-16T05:04:49.100Z,90.10
2018-04-16T05:07:19.896Z,86.07
2018-04-16T05:09:50.760Z,77.62
2018-04-16T05:12:21.658Z,97.12
2018-04-16T05:14:52.439Z,87.70
2018-04-16T05:17:26.852Z,92.78
2018-04-16T05:19:57.608Z,90.65
2018-04-16T05:22:29.056Z,101.28
2018-04-16T05:25:00.118Z,94.10
2018-04-16T05:27:31.341Z,94.72
2018-04-16T05:30:02.272Z,88.62
2018-04-16T05:32:33.431Z,93.55
2018-04-16T05:35:04.398Z,94.15
2018-04-16T05:37:35.284Z,97.22
2018-04-16T05:40:06.114Z,92.93
2018-04-16T05:42:37.150Z,94.45
2018-04-16T05:45:08.129Z,97.97
2018-04-16T05:47:39.049Z,93.10
2018-04-16T05:50:10.017Z,90.35
2018-04-16T05:52:41.213Z,101.50
2018-04-16T05:55:11.994Z,90.07
2018-04-16T05:57:42.929Z,93.95
2018-04-16T06:00:13.856Z,95.97
2018-04-16T06:02:45.050Z,95.70
2018-04-16T06:05:15.881Z,97.72
2018-04-16T06:07:48.180Z,101.43
2018-04-16T06:10:20.257Z,101.57
2018-04-16T06:12:52.181Z,93.12
2018-04-16T06:15:23.040Z,97.95
2018-04-16T06:17:55.119Z,97.97
2018-04-16T06:20:26.609Z,92.93
2018-04-16T06:22:59.181Z,95.43
2018-04-16T06:25:31.830Z,91.78
2018-04-16T06:28:03.709Z,93.50
2018-04-16T06:30:37.098Z,96.40
2018-04-16T06:33:09.408Z,97.93
2018-04-16T06:35:41.340Z,96.47
2018-04-16T06:38:25.270Z,113.88
2018-04-16T06:40:57.143Z,108.43
2018-04-16T06:43:34.427Z,95.47
2018-04-16T06:46:19.147Z,99.55
2018-04-16T06:48:50.664Z,95.47
2018-04-16T06:51:22.503Z,93.62
2018-04-16T06:53:54.069Z,103.22
2018-04-16T06:56:25.514Z,107.25
2018-04-16T06:58:57.847Z,90.40
2018-04-16T07:01:29.037Z,109.57
2018-04-16T07:04:04.843Z,94.25
2018-04-16T07:06:39.998Z,95.18
2018-04-16T07:12:15.452Z,100.50
2018-04-16T07:14:47.039Z,100.18
2018-04-16T07:17:18.750Z,98.12
2018-04-16T07:19:50.689Z,105.25
2018-04-16T07:22:23.579Z,101.05
2018-04-16T07:24:54.667Z,105.25
2018-04-16T07:27:26.565Z,98.97
2018-04-16T07:29:57.509Z,97.75
2018-04-16T07:32:29.409Z,102.93
2018-04-16T07:35:00.555Z,108.15
2018-04-16T07:37:32.024Z,95.68
2018-04-16T07:40:06.166Z,102.93
2018-04-16T07:42:38.182Z,94.35
2018-04-16T07:45:12.200Z,95.15
2018-04-16T07:47:43.104Z,91.55
2018-04-16T07:50:13.768Z,92.28
2018-04-16T07:52:44.338Z,91.70
2018-04-16T07:55:15.244Z,90.40
2018-04-16T07:57:45.803Z,84.80
2018-04-16T08:00:26.838Z,96.50
2018-04-16T08:03:01.340Z,92.12
2018-04-16T08:05:38.411Z,90.85
2018-04-16T08:08:09.112Z,91.15
2018-04-16T08:10:47.131Z,88.85
2018-04-16T08:13:19.265Z,79.82
2018-04-16T08:16:03.091Z,94.93
2018-04-16T08:22:00.770Z,94.37
2018-04-16T08:24:31.909Z,79.40
2018-04-16T08:27:03.643Z,82.88
2018-04-16T08:29:36.131Z,80.00
2018-04-16T08:32:07.608Z,86.03
2018-04-16T08:34:38.726Z,92.22
2018-04-16T08:37:09.743Z,77.15
2018-04-16T08:39:42.263Z,77.87
2018-04-16T08:42:14.653Z,86.32
2018-04-16T08:44:46.178Z,87.25
2018-04-16T08:47:17.059Z,86.40
2018-04-16T08:49:48.129Z,88.32
2018-04-16T08:52:19.250Z,83.85
2018-04-16T08:54:50.459Z,85.28
2018-04-16T08:57:21.495Z,83.53
2018-04-16T08:59:52.558Z,82.82
2018-04-16T09:02:23.679Z,85.53
2018-04-16T09:04:55.449Z,88.57
2018-04-16T09:07:26.224Z,93.62
2018-04-16T09:09:56.950Z,93.05
2018-04-16T09:12:46.652Z,105.68
2018-04-16T09:15:17.285Z,90.68
2018-04-16T09:17:48.031Z,89.22
2018-04-16T09:20:20.669Z,84.97
2018-04-16T09:22:51.532Z,86.55
2018-04-16T09:25:22.195Z,87.78
2018-04-16T09:27:52.896Z,87.15
2018-04-16T09:30:23.565Z,87.97
2018-04-16T09:32:54.095Z,81.63
2018-04-16T09:35:25.077Z,85.70
2018-04-16T09:37:56.428Z,80.32
2018-04-16T09:40:27.156Z,79.43
2018-04-16T09:42:57.740Z,80.10
2018-04-16T09:45:32.311Z,83.35
2018-04-16T09:48:04.560Z,80.87
2018-04-16T09:50:35.417Z,82.93
2018-04-16T09:53:06.465Z,89.35
2018-04-16T09:55:37.251Z,88.25
2018-04-16T09:58:08.881Z,90.12
2018-04-16T10:00:43.999Z,89.60
2018-04-16T10:03:19.342Z,92.37
2018-04-16T10:05:50.783Z,90.50
2018-04-16T10:08:21.667Z,89.87
2018-04-16T10:10:52.500Z,94.55
2018-04-16T10:13:24.175Z,94.15
2018-04-16T10:15:55.006Z,88.90
2018-04-16T10:18:25.771Z,84.40
2018-04-16T10:20:56.896Z,87.15
2018-04-16T10:23:29.496Z,84.53
2018-04-16T10:26:00.789Z,89.82
2018-04-16T10:28:31.658Z,95.38
2018-04-16T10:31:02.652Z,91.28
2018-04-16T10:33:33.759Z,88.18
2018-04-16T10:36:04.725Z,93.57
2018-04-16T10:38:35.623Z,89.75
2018-04-16T10:41:06.596Z,93.40
2018-04-16T10:43:37.477Z,99.18
2018-04-16T10:46:08.433Z,86.32
2018-04-16T10:48:39.885Z,86.80
2018-04-16T10:51:10.675Z,88.85
2018-04-16T10:53:44.238Z,88.87
2018-04-16T10:56:16.186Z,90.22
2018-04-16T10:58:49.325Z,91.25
2018-04-16T11:01:20.796Z,91.95
2018-04-16T11:03:51.960Z,95.57
2018-04-16T11:06:23.158Z,95.15
2018-04-16T11:08:54.497Z,91.75
2018-04-16T11:11:25.793Z,87.80
2018-04-16T11:13:57.005Z,87.95
2018-04-16T11:16:28.355Z,91.07
2018-04-16T11:18:59.618Z,83.32
2018-04-16T11:21:31.772Z,91.35
2018-04-16T11:24:03.797Z,93.57
2018-04-16T11:26:34.694Z,94.47
2018-04-16T11:29:05.923Z,91.20
2018-04-16T11:31:36.706Z,95.10
2018-04-16T11:34:07.709Z,88.35
2018-04-16T11:36:40.521Z,82.85
2018-04-16T11:39:11.430Z,92.45
2018-04-16T11:41:42.488Z,86.53
2018-04-16T11:44:13.510Z,94.65
2018-04-16T11:46:44.925Z,94.50
2018-04-16T11:49:17.024Z,90.03
2018-04-16T11:51:48.431Z,98.62
2018-04-16T11:54:23.133Z,97.78
2018-04-16T11:56:55.437Z,92.80
2018-04-16T11:59:26.360Z,93.03
2018-04-16T12:02:02.921Z,91.82
2018-04-16T12:04:35.028Z,98.80
2018-04-16T12:07:06.620Z,95.40
2018-04-16T12:09:38.385Z,97.43
2018-04-16T12:21:34.924Z,97.55
2018-04-16T12:24:10.416Z,100.97
2018-04-16T12:26:44.452Z,88.75
2018-04-16T12:29:16.870Z,83.90
2018-04-16T12:31:48.171Z,87.22
2018-04-16T12:34:19.722Z,88.12
2018-04-16T12:36:50.803Z,87.82
2018-04-16T12:39:26.043Z,89.62
2018-04-16T12:42:05.073Z,84.45
2018-04-16T12:44:46.763Z,80.25
2018-04-16T12:47:21.592Z,87.65
2018-04-16T12:49:56.542Z,86.07
2018-04-16T12:52:27.872Z,93.60
2018-04-16T12:54:59.470Z,89.20
2018-04-16T12:57:30.342Z,88.32
2018-04-16T13:00:01.534Z,95.75
2018-04-16T13:02:32.692Z,89.97
2018-04-16T13:05:05.102Z,94.85
2018-04-16T13:07:35.991Z,92.22
2018-04-16T13:10:09.124Z,98.43
2018-04-16T13:12:39.873Z,95.30
2018-04-16T13:15:10.663Z,95.05
2018-04-16T13:17:41.475Z,93.37
2018-04-16T13:20:12.202Z,97.43
2018-04-16T13:22:43.058Z,89.07
2018-04-16T13:25:13.907Z,94.10
2018-04-16T13:27:45.053Z,96.60
2018-04-16T13:30:17.122Z,90.87
2018-04-16T13:32:48.049Z,99.57
2018-04-16T13:35:19.612Z,91.00
2018-04-16T13:37:50.257Z,100.15
2018-04-16T13:40:21.244Z,90.43
2018-04-16T13:42:52.085Z,96.03
2018-04-16T13:45:23.284Z,93.55
2018-04-16T13:47:55.045Z,95.87
2018-04-16T13:50:30.870Z,91.60
2018-04-16T13:53:10.423Z,92.18
2018-04-16T13:55:43.741Z,97.97
2018-04-16T13:58:14.433Z,94.45
2018-04-16T14:00:45.329Z,95.30
2018-04-16T14:03:16.413Z,105.37
2018-04-16T14:05:47.215Z,94.15
2018-04-16T14:08:18.213Z,101.07
2018-04-16T14:10:50.345Z,89.40
2018-04-16T14:13:22.460Z,92.53
2018-04-16T14:15:53.595Z,92.28
2018-04-16T14:18:24.914Z,90.70
2018-04-16T14:20:55.630Z,95.03
2018-04-16T14:23:26.634Z,88.80
2018-04-16T14:25:57.375Z,102.45
2018-04-16T14:31:46.341Z,98.80
2018-04-16T14:34:19.501Z,102.70
2018-04-16T14:36:53.979Z,101.87
2018-04-16T14:39:24.906Z,112.82
2018-04-16T14:41:56.694Z,140.65
2018-04-16T14:44:27.653Z,105.93
2018-04-16T14:46:58.602Z,102.32
2018-04-16T14:49:29.823Z,106.75
2018-04-16T14:52:00.701Z,99.55
2018-04-16T14:54:33.468Z,99.32
2018-04-16T14:57:04.744Z,94.57
2018-04-16T14:59:35.443Z,89.05
2018-04-16T15:02:07.131Z,97.40
2018-04-16T15:04:38.283Z,90.75
2018-04-16T15:10:27.906Z,102.50
2018-04-16T15:12:59.830Z,84.37
2018-04-16T15:15:31.663Z,87.72
2018-04-16T15:18:02.584Z,86.00
2018-04-16T15:20:37.072Z,83.22
2018-04-16T15:23:09.876Z,87.22
2018-04-16T15:25:44.875Z,89.13
2018-04-16T15:28:16.205Z,85.07
2018-04-16T15:30:47.590Z,90.00
2018-04-16T15:33:19.211Z,87.95
2018-04-16T15:35:50.638Z,109.55
2018-04-16T15:38:21.636Z,99.05
2018-04-16T15:44:01.590Z,95.62
2018-04-16T15:46:32.604Z,82.68
2018-04-16T15:49:03.687Z,79.78
2018-04-16T15:51:34.492Z,85.18
2018-04-16T15:54:06.224Z,91.68
2018-04-16T15:56:37.004Z,99.85
2018-04-16T15:59:08.734Z,88.60
2018-04-16T16:01:39.951Z,87.20
2018-04-16T16:04:11.202Z,87.75
2018-04-16T16:06:42.389Z,83.03
2018-04-16T16:09:13.642Z,87.88
2018-04-16T16:11:46.227Z,83.93
2018-04-16T16:14:17.657Z,80.00
2018-04-16T16:16:49.097Z,81.15
2018-04-16T16:19:20.966Z,82.47
2018-04-16T16:21:52.302Z,79.82
2018-04-16T16:24:23.950Z,74.97
2018-04-16T16:26:54.886Z,86.30
2018-04-16T16:29:26.231Z,82.15
2018-04-16T16:31:57.521Z,81.57
2018-04-16T16:34:28.833Z,81.15
2018-04-16T16:36:59.911Z,84.07
2018-04-16T16:39:31.188Z,81.87
2018-04-16T16:42:02.551Z,76.47
2018-04-16T16:44:34.785Z,79.40
2018-04-16T16:47:07.406Z,85.62
2018-04-16T16:49:38.541Z,78.93
2018-04-16T16:52:09.900Z,79.97
2018-04-16T16:54:40.937Z,81.40
2018-04-16T16:57:12.002Z,85.18
2018-04-16T16:59:42.907Z,83.22
2018-04-16T17:02:13.646Z,81.12
2018-04-16T17:04:44.689Z,88.43
2018-04-16T17:07:15.306Z,88.30
2018-04-16T17:09:46.272Z,88.72
2018-04-16T17:12:16.920Z,85.38
2018-04-16T17:14:47.833Z,88.87
2018-04-16T17:17:20.994Z,90.68
2018-04-16T17:19:52.050Z,85.97
2018-04-16T17:22:22.892Z,85.20
2018-04-16T17:24:53.718Z,84.68
2018-04-16T17:27:24.304Z,86.45
2018-04-16T17:29:55.033Z,83.05
2018-04-16T17:32:25.921Z,80.78
2018-04-16T17:34:56.723Z,100.12
2018-04-16T17:37:27.443Z,143.82
2018-04-16T17:39:58.127Z,92.03
2018-04-16T17:42:28.729Z,84.85
2018-04-16T17:44:59.837Z,92.03
2018-04-16T17:47:32.704Z,85.25
2018-04-16T17:50:04.512Z,93.40
2018-04-16T17:52:35.391Z,84.68
2018-04-16T17:55:07.566Z,83.97
2018-04-16T17:57:38.497Z,101.78
2018-04-16T18:00:09.365Z,99.80
2018-04-16T18:02:40.008Z,91.32
2018-04-16T18:05:10.939Z,88.50
2018-04-16T18:07:41.649Z,92.95
2018-04-16T18:10:14.585Z,110.40
2018-04-16T18:12:45.764Z,103.82
2018-04-16T18:15:18.482Z,88.00
2018-04-16T18:17:50.317Z,83.35
2018-04-16T18:20:21.674Z,87.20
2018-04-16T18:22:54.544Z,89.75
2018-04-16T18:25:26.485Z,90.70
2018-04-16T18:27:57.922Z,95.32
2018-04-16T18:30:28.681Z,89.15
2018-04-16T18:32:59.313Z,92.85
2018-04-16T18:35:31.097Z,82.43
2018-04-16T18:38:03.416Z,88.93
2018-04-16T18:40:35.369Z,97.03
2018-04-16T18:43:07.267Z,95.38
2018-04-16T18:45:38.304Z,89.65
2018-04-16T18:48:09.190Z,87.20
2018-04-16T18:50:40.778Z,84.53
2018-04-16T18:53:11.534Z,88.10
2018-04-16T18:55:42.197Z,93.37
2018-04-16T18:58:13.357Z,95.07
2018-04-16T19:00:44.072Z,92.30
2018-04-16T19:03:14.783Z,80.25
2018-04-16T19:05:45.941Z,84.18
2018-04-16T19:08:16.669Z,92.37
2018-04-16T19:10:47.432Z,94.70
2018-04-16T19:13:18.084Z,94.57
2018-04-16T19:15:49.332Z,139.57
2018-04-16T19:18:20.733Z,108.97
2018-04-16T19:21:11.842Z,113.25
2018-04-16T19:23:52.091Z,94.03
2018-04-16T19:26:25.583Z,93.43
2018-04-16T19:28:59.151Z,88.43
2018-04-16T19:31:32.018Z,93.55
2018-04-16T19:35:16.842Z,90.87
2018-04-16T19:40:50.217Z,83.87
2018-04-16T19:43:23.439Z,85.50
2018-04-16T19:45:58.711Z,83.90
2018-04-16T19:48:33.990Z,91.03
2018-04-16T19:51:06.415Z,99.37
2018-04-16T19:53:39.706Z,84.65
2018-04-16T19:56:26.342Z,79.10
2018-04-16T19:58:58.812Z,89.93
2018-04-16T20:01:33.797Z,78.40
2018-04-16T20:04:10.332Z,79.37
2018-04-16T20:06:42.728Z,74.70
2018-04-16T20:09:16.008Z,77.25
2018-04-16T20:11:49.138Z,79.45
2018-04-16T20:14:21.635Z,75.30
2018-04-16T20:17:03.224Z,80.78
2018-04-16T21:00:01.513Z,76.65
2018-04-16T21:06:29.438Z,80.65
2018-04-16T21:09:03.325Z,81.87
2018-04-16T21:11:51.714Z,78.78
2018-04-16T21:14:41.586Z,84.03
2018-04-16T21:49:48.009Z,82.62
2018-04-16T22:05:16.709Z,79.50
2018-04-16T22:07:48.528Z,82.85
2018-04-16T22:10:19.929Z,80.87
2018-04-16T22:12:51.633Z,78.07
2018-04-16T22:15:23.287Z,85.15
2018-04-16T22:18:02.220Z,86.95
2018-04-16T22:20:33.988Z,77.97
2018-04-16T22:23:06.120Z,77.12
2018-04-16T22:25:37.741Z,78.37
2018-04-16T22:28:21.460Z,82.72
2018-04-16T22:30:53.202Z,81.93
2018-04-16T22:37:07.043Z,81.65
2018-04-16T22:39:39.020Z,83.90
2018-04-16T22:50:42.843Z,76.25
2018-04-16T22:56:36.914Z,86.25
2018-04-16T23:02:12.109Z,79.87
2018-04-16T23:04:43.951Z,83.80
2018-04-16T23:07:19.308Z,86.35
2018-04-16T23:09:50.891Z,82.45
2018-04-16T23:12:23.899Z,77.03
2018-04-16T23:14:55.288Z,73.32
2018-04-16T23:17:26.535Z,75.05
2018-04-16T23:19:57.849Z,81.97
2018-04-16T23:22:29.173Z,72.28
2018-04-16T23:25:00.391Z,74.80
2018-04-16T23:27:31.654Z,74.65
2018-04-16T23:30:04.077Z,71.25
2018-04-16T23:32:36.233Z,70.70
2018-04-16T23:35:08.289Z,72.03
2018-04-16T23:37:51.735Z,80.30
2018-04-16T23:40:28.849Z,70.50
2018-04-16T23:46:20.215Z,66.72
2018-04-16T23:48:51.486Z,73.78
2018-04-16T23:51:22.644Z,65.65
2018-04-16T23:53:54.524Z,75.18
2018-04-16T23:56:25.728Z,73.93
2018-04-16T23:58:56.961Z,77.65
